Time;durP1;ratioP1;P1;durP2;ratioP2;P2;SDS_P1;SDS_P2;PMS_P1;PMS_P2;Temp;Humidity;BMP_temperature;BMP_pressure;BME280_temperature;BME280_humidity;BME280_pressure;Samples;Min_cycle;Max_cycle;Signal;HPM_P1;HPM_P2
2021/08/25 00:03:06;;;;;;;41.60;34.50;;;;;;;14.44;100.00;99230.98;1098684;126;20214;-66
2021/08/25 00:06:19;;;;;;;42.23;32.58;;;;;;;14.42;100.00;99231.81;1148237;123;21234;-66
2021/08/25 00:17:15;;;;;;;36.25;30.85;;;;;;;14.40;100.00;99221.29;1119807;126;21635;-67
2021/08/25 00:32:01;;;;;;;40.23;34.90;;;;;;;14.39;100.00;99202.70;1143329;124;21286;-66
2021/08/25 00:34:30;;;;;;;43.10;34.83;;;;;;;14.39;100.00;99203.50;1168464;120;21205;-66
2021/08/25 00:36:58;;;;;;;39.13;33.80;;;;;;;14.39;100.00;99204.05;1177877;119;21213;-66
2021/08/25 00:39:25;;;;;;;39.90;33.00;;;;;;;14.40;100.00;99196.99;1205835;117;21196;-66
2021/08/25 00:41:52;;;;;;;41.45;33.18;;;;;;;14.39;100.00;99199.44;1205751;117;21290;-66
2021/08/25 00:44:19;;;;;;;40.67;31.30;;;;;;;14.40;100.00;99196.20;1208737;116;21137;-66
2021/08/25 00:46:54;;;;;;;33.10;28.35;;;;;;;14.41;100.00;99200.52;1261458;112;21102;-66
2021/08/25 00:52:42;;;;;;;37.67;29.72;;;;;;;14.40;100.00;99196.20;1278418;111;21531;-66
2021/08/25 00:55:13;;;;;;;35.60;28.02;;;;;;;14.44;100.00;99200.73;1288440;107;22160;-67
2021/08/25 01:01:06;;;;;;;33.35;25.48;;;;;;;14.50;100.00;99194.72;1331823;107;21121;-66
2021/08/25 01:03:46;;;;;;;39.85;25.55;;;;;;;14.52;100.00;99196.59;1344519;103;21184;-66
2021/08/25 01:06:16;;;;;;;31.42;28.02;;;;;;;14.53;100.00;99192.30;1388173;103;21077;-66
2021/08/25 01:08:50;;;;;;;33.50;27.37;;;;;;;14.55;100.00;99192.81;1420328;97;21861;-67
2021/08/25 01:12:01;;;;;;;28.55;25.52;;;;;;;14.57;100.00;99196.55;1437676;99;21018;-66
2021/08/25 01:15:08;;;;;;;35.08;27.82;;;;;;;14.59;100.00;99191.67;1440320;97;21505;-67
2021/08/25 01:17:52;;;;;;;35.58;28.70;;;;;;;14.61;100.00;99186.80;1473243;97;21025;-67
2021/08/25 01:20:41;;;;;;;40.83;29.18;;;;;;;14.60;100.00;99179.80;1401312;101;21442;-67
2021/08/25 01:23:09;;;;;;;36.07;28.57;;;;;;;14.62;100.00;99180.28;1431411;100;21502;-67
2021/08/25 01:26:36;;;;;;;33.65;27.17;;;;;;;14.63;100.00;99170.31;1366360;103;21115;-66
2021/08/25 01:29:33;;;;;;;36.88;28.77;;;;;;;14.64;100.00;99171.91;1327532;106;21105;-67
2021/08/25 01:36:02;;;;;;;42.38;28.98;;;;;;;14.66;100.00;99167.02;1319737;107;20225;-67
2021/08/25 01:39:24;;;;;;;35.73;28.47;;;;;;;14.67;100.00;99163.22;1319590;107;21259;-67
2021/08/25 01:41:53;;;;;;;50.70;32.75;;;;;;;14.66;100.00;99158.37;1319888;107;21080;-66
2021/08/25 01:44:29;;;;;;;46.60;33.73;;;;;;;14.66;100.00;99150.81;1317857;108;21204;-66
2021/08/25 01:46:56;;;;;;;44.37;34.37;;;;;;;14.67;100.00;99155.91;1319869;107;21216;-67
2021/08/25 01:49:37;;;;;;;41.25;33.73;;;;;;;14.67;100.00;99145.11;1323441;105;21147;-67
2021/08/25 01:52:50;;;;;;;47.17;33.83;;;;;;;14.68;100.00;99149.98;1328665;106;21323;-67
2021/08/25 02:00:18;;;;;;;42.73;32.70;;;;;;;14.68;100.00;99140.53;1246840;113;21252;-67
2021/08/25 02:07:21;;;;;;;48.02;38.33;;;;;;;14.70;100.00;99132.39;1206568;117;21221;-67
2021/08/25 02:11:29;;;;;;;48.08;38.83;;;;;;;14.71;100.00;99131.28;1212200;117;21345;-67
2021/08/25 02:35:46;;;;;;;;;;;;;;;14.79;100.00;99148.18;1145224;123;21424;-67
2021/08/25 02:39:24;;;;;;;32.10;24.90;;;;;;;14.75;100.00;99156.63;1178948;119;20294;-67
2021/08/25 02:45:55;;;;;;;32.25;26.55;;;;;;;14.63;100.00;99158.16;1224387;116;21163;-67
2021/08/25 02:52:52;;;;;;;42.70;31.20;;;;;;;14.63;100.00;99144.66;1196260;118;21119;-66
2021/08/25 02:56:27;;;;;;;34.20;28.77;;;;;;;14.66;100.00;99140.81;1216925;116;21057;-66
2021/08/25 03:06:28;;;;;;;38.02;29.07;;;;;;;14.74;100.00;99159.06;1236319;114;21182;-67
2021/08/25 03:10:07;;;;;;;37.75;30.35;;;;;;;14.77;100.00;99152.27;1220255;116;21648;-68
2021/08/25 03:13:24;;;;;;;36.05;28.73;;;;;;;14.82;100.00;99159.51;1192230;119;21125;-65
2021/08/25 03:17:16;;;;;;;45.20;30.23;;;;;;;14.84;100.00;99155.97;1193997;118;21091;-66
2021/08/25 03:20:29;;;;;;;;;;;;;;;14.89;100.00;99154.55;1169876;121;21633;-67
2021/08/25 03:22:56;;;;;;;34.85;27.95;;;;;;;14.90;100.00;99152.91;1160086;122;20204;-66
2021/08/25 03:29:06;;;;;;;44.55;32.78;;;;;;;14.93;100.00;99154.23;1170452;122;21710;-67
2021/08/25 03:31:52;;;;;;;35.43;29.57;;;;;;;14.95;100.00;99150.14;1177386;121;21856;-67
2021/08/25 03:48:21;;;;;;;33.95;26.60;;;;;;;15.16;100.00;99158.77;1210370;117;21190;-66
2021/08/25 03:51:56;;;;;;;;;;;;;;;;;;;;;
2021/08/25 03:55:25;;;;;;;39.20;30.92;;;;;;;15.24;100.00;99159.99;1251297;113;21239;-68
2021/08/25 04:00:55;;;;;;;38.92;29.87;;;;;;;15.31;100.00;99168.53;1278949;111;21561;-68
2021/08/25 04:04:10;;;;;;;51.70;31.90;;;;;;;15.39;100.00;99162.45;1217947;117;21694;-67
2021/08/25 04:06:37;;;;;;;42.75;30.72;;;;;;;15.45;100.00;99159.10;1204990;117;21211;-67
2021/08/25 04:10:15;;;;;;;45.75;31.15;;;;;;;15.51;100.00;99155.23;1224283;115;21144;-68
2021/08/25 04:14:01;;;;;;;38.42;31.73;;;;;;;15.55;100.00;99153.52;1224371;117;21537;-68
2021/08/25 04:21:40;;;;;;;43.17;31.60;;;;;;;15.69;100.00;99153.56;1213331;117;21569;-67
2021/08/25 04:25:14;;;;;;;39.55;28.62;;;;;;;15.73;100.00;99156.53;1220110;116;21145;-67
2021/08/25 04:29:58;;;;;;;;;;;;;;;;;;;;;
2021/08/25 04:42:29;;;;;;;37.67;28.02;;;;;;;16.04;100.00;99150.78;1229756;115;21198;-67
2021/08/25 04:46:17;;;;;;;35.78;24.82;;;;;;;16.12;100.00;99145.25;1253643;114;21550;-67
2021/08/25 04:48:52;;;;;;;35.03;26.77;;;;;;;16.05;100.00;99151.05;1228315;116;21295;-67
2021/08/25 06:35:07;;;;;;;18.73;14.63;;;;;;;17.00;100.00;99122.56;1451915;96;21089;-68
2021/08/25 06:46:16;;;;;;;22.37;15.93;;;;;;;17.02;100.00;99133.91;1392743;101;21074;-66
2021/08/25 08:07:59;;;;;;;7.53;6.10;;;;;;;18.67;100.00;99166.02;1415685;100;21614;-69
2021/08/25 08:11:24;;;;;;;6.78;5.08;;;;;;;18.58;100.00;99165.19;1421211;100;21176;-68
2021/08/25 09:24:46;;;;;;;3.62;1.82;;;;;;;19.44;100.00;99159.59;1414750;101;21149;-68
2021/08/25 09:27:15;;;;;;;3.85;1.77;;;;;;;19.44;100.00;99159.59;1420562;100;21210;-68
2021/08/25 09:29:46;;;;;;;1.50;1.40;;;;;;;19.34;100.00;99159.36;1397560;100;21234;-67
2021/08/25 09:32:18;;;;;;;2.98;1.80;;;;;;;19.38;100.00;99149.44;1431001;97;21569;-68
2021/08/25 09:35:14;;;;;;;2.55;1.40;;;;;;;19.99;100.00;99162.95;1469036;96;21110;-68
2021/08/25 09:37:56;;;;;;;1.57;1.47;;;;;;;19.78;100.00;99160.69;1428978;96;21118;-68
2021/08/25 09:45:07;;;;;;;;;;;;;;;;;;;;;
2021/08/25 09:51:45;;;;;;;3.15;1.72;;;;;;;18.47;100.00;99142.13;1333401;106;21595;-68
2021/08/25 09:55:13;;;;;;;1.62;1.35;;;;;;;18.82;100.00;99141.11;1311691;107;21175;-69
2021/08/25 10:03:01;;;;;;;1.45;1.10;;;;;;;18.70;100.00;99142.27;1266686;111;21240;-69
2021/08/25 10:13:34;;;;;;;2.25;1.70;;;;;;;18.92;100.00;99140.57;1277692;111;22113;-69
2021/08/25 10:16:01;;;;;;;3.20;1.32;;;;;;;19.14;100.00;99137.69;1324498;107;22495;-69
2021/08/25 10:18:37;;;;;;;1.40;1.30;;;;;;;19.10;100.00;99134.00;1328764;108;21217;-67
2021/08/25 10:21:00;;;;;;;1.37;1.27;;;;;;;19.27;100.00;99126.39;1329083;107;21095;-66
2021/08/25 10:24:02;;;;;;;1.57;1.40;;;;;;;19.21;100.00;99146.73;1321531;107;21165;-65
2021/08/25 10:26:29;;;;;;;1.87;1.55;;;;;;;18.95;100.00;99139.36;1268680;111;21135;-65
2021/08/25 10:29:03;;;;;;;1.30;1.20;;;;;;;19.09;100.00;99142.50;1301206;109;21177;-66
2021/08/25 10:31:52;;;;;;;0.95;0.93;;;;;;;18.94;100.00;99132.90;1332034;107;21229;-66
2021/08/25 10:34:27;;;;;;;2.08;1.35;;;;;;;18.91;100.00;99130.23;1341660;106;21688;-65
2021/08/25 10:37:20;;;;;;;1.40;1.10;;;;;;;18.96;100.00;99130.09;1344855;105;21546;-66
2021/08/25 10:39:50;;;;;;;1.52;1.35;;;;;;;18.75;100.00;99137.23;1369120;103;21200;-65
2021/08/25 10:42:14;;;;;;;1.87;1.30;;;;;;;18.75;100.00;99137.23;1395428;101;21074;-65
2021/08/25 10:44:48;;;;;;;1.32;1.22;;;;;;;18.93;100.00;99134.00;1401366;100;21316;-65
2021/08/25 10:47:16;;;;;;;1.72;1.00;;;;;;;18.78;100.00;99129.27;1406515;102;21133;-64
2021/08/25 10:49:48;;;;;;;1.52;1.35;;;;;;;18.91;100.00;99134.30;1406529;100;21526;-65
2021/08/25 10:52:20;;;;;;;1.90;1.37;;;;;;;18.75;100.00;99133.16;1406490;102;21100;-64
2021/08/25 10:54:49;;;;;;;1.00;0.90;;;;;;;18.84;100.00;99123.13;1409019;100;21217;-65
2021/08/25 10:57:20;;;;;;;6.37;1.30;;;;;;;18.16;100.00;99132.94;1414616;99;21064;-65
2021/08/25 10:59:47;;;;;;;1.50;1.40;;;;;;;18.21;100.00;99135.52;1446992;98;21128;-65
2021/08/25 11:02:14;;;;;;;1.40;1.30;;;;;;;18.37;100.00;99139.14;1447083;99;21502;-65
2021/08/25 11:04:43;;;;;;;2.42;1.42;;;;;;;18.38;100.00;99133.97;1446775;99;21085;-65
2021/08/25 11:07:11;;;;;;;;;;;;;;;18.16;100.00;99137.02;1476327;95;21051;-66
2021/08/25 11:09:46;;;;;;;2.80;1.32;;;;;;;17.94;100.00;99137.09;1494984;95;21234;-67
2021/08/25 11:12:24;;;;;;;1.30;1.20;;;;;;;17.74;100.00;99126.98;1510599;95;21055;-63
2021/08/25 11:14:53;;;;;;;4.00;1.47;;;;;;;17.73;100.00;99141.64;1510148;95;21377;-67
2021/08/25 11:17:23;;;;;;;1.67;1.12;;;;;;;17.94;100.00;99137.09;1519399;93;21459;-68
2021/08/25 11:20:01;;;;;;;1.95;1.20;;;;;;;17.92;100.00;99117.03;1538432;93;21123;-68
2021/08/25 11:22:44;;;;;;;1.50;1.40;;;;;;;17.90;100.00;99147.75;1538071;92;23171;-68
2021/08/25 11:25:44;;;;;;;1.37;1.27;;;;;;;17.79;100.00;99140.41;1564996;91;21049;-70
2021/08/25 11:28:17;;;;;;;2.67;2.22;;;;;;;17.31;100.00;99132.13;1552513;91;20983;-69
2021/08/25 11:31:17;;;;;;;2.12;1.90;;;;;;;17.45;100.00;99138.30;1520776;93;21094;-70
2021/08/25 11:34:00;;;;;;;3.90;1.92;;;;;;;17.81;100.00;99140.68;1449326;97;21493;-69
2021/08/25 11:36:47;;;;;;;4.78;2.37;;;;;;;17.99;100.00;99130.16;1453229;97;21170;-69
2021/08/25 11:39:30;;;;;;;2.05;1.85;;;;;;;18.45;100.00;99136.20;1442616;98;21606;-70
2021/08/25 11:42:18;;;;;;;1.50;1.40;;;;;;;18.53;100.00;99153.11;1449591;96;21084;-70
2021/08/25 11:45:38;;;;;;;2.25;2.08;;;;;;;17.95;100.00;99143.55;1449289;97;21069;-70
2021/08/25 11:48:07;;;;;;;1.50;1.40;;;;;;;18.30;100.00;99142.34;1407441;100;21162;-69
2021/08/25 11:50:43;;;;;;;1.72;1.62;;;;;;;18.32;100.00;99140.66;1407812;100;21785;-69
2021/08/25 11:53:46;;;;;;;1.50;1.40;;;;;;;18.48;100.00;99137.75;1409266;99;21140;-69
2021/08/25 12:00:15;;;;;;;1.77;1.67;;;;;;;18.29;100.00;99136.65;1406447;102;21155;-70
2021/08/25 12:03:39;;;;;;;1.10;1.10;;;;;;;18.87;100.00;99132.57;1406435;102;21068;-69
2021/08/25 12:06:42;;;;;;;1.50;1.40;;;;;;;18.76;100.00;99129.34;1345123;105;21063;-69
2021/08/25 12:09:49;;;;;;;4.25;1.70;;;;;;;18.55;100.00;99110.91;1343810;105;21859;-70
2021/08/25 12:12:36;;;;;;;2.45;1.67;;;;;;;18.55;100.00;99128.58;1346332;106;21118;-70
2021/08/25 12:15:04;;;;;;;1.80;1.70;;;;;;;18.16;100.00;99112.56;1263776;113;21203;-70
2021/08/25 12:17:32;;;;;;;3.72;2.55;;;;;;;18.23;100.00;99125.70;1241593;114;21196;-68
2021/08/25 12:20:41;;;;;;;4.12;2.05;;;;;;;18.15;100.00;99135.42;1232253;115;21686;-69
2021/08/25 12:23:21;;;;;;;2.40;2.20;;;;;;;18.16;100.00;99132.94;1224841;114;21256;-70
2021/08/25 12:26:26;;;;;;;2.50;2.00;;;;;;;18.07;100.00;99128.59;1240041;114;22188;-70
2021/08/25 12:29:07;;;;;;;2.42;2.22;;;;;;;18.15;100.00;99116.41;1265930;112;21145;-69
2021/08/25 12:31:42;;;;;;;2.47;1.95;;;;;;;17.91;100.00;99123.58;1277599;110;21148;-69
2021/08/25 12:40:56;;;;;;;;;;;;;;;18.16;100.00;99114.48;1212241;117;21631;-70
2021/08/25 12:43:23;;;;;;;2.33;2.10;;;;;;;18.32;100.00;99109.41;1225535;115;20226;-69
2021/08/25 12:46:15;;;;;;;2.52;1.80;;;;;;;18.41;100.00;99098.80;1202152;118;21142;-69
2021/08/25 12:48:46;;;;;;;2.00;1.70;;;;;;;18.30;100.00;99111.64;1224397;116;21230;-69
2021/08/25 12:51:59;;;;;;;2.75;1.95;;;;;;;18.13;100.00;99109.13;1205291;117;21250;-70
2021/08/25 12:54:40;;;;;;;2.15;2.00;;;;;;;18.20;100.00;99105.94;1191557;120;21372;-68
2021/08/25 13:00:57;;;;;;;2.52;1.95;;;;;;;18.17;100.00;99110.08;1254888;112;21275;-68
2021/08/25 13:06:42;;;;;;;2.40;2.20;;;;;;;18.33;100.00;99094.16;1248623;111;21078;-69
2021/08/25 13:09:09;;;;;;;2.22;1.82;;;;;;;18.76;100.00;99089.36;1261187;111;21068;-68
2021/08/25 13:11:37;;;;;;;2.67;1.75;;;;;;;18.76;100.00;99092.08;1306909;109;21242;-68
2021/08/25 13:14:04;;;;;;;2.60;2.20;;;;;;;18.79;100.00;99100.16;1307241;108;21198;-68
2021/08/25 13:16:38;;;;;;;2.45;2.20;;;;;;;18.61;100.00;99102.83;1299491;107;21066;-67
2021/08/25 13:19:07;;;;;;;2.17;1.72;;;;;;;18.66;100.00;99092.93;1331804;106;21213;-68
2021/08/25 13:21:35;;;;;;;2.83;2.62;;;;;;;18.33;100.00;99094.73;1337080;102;21175;-69
2021/08/25 13:24:05;;;;;;;3.70;2.15;;;;;;;18.52;100.00;99099.33;1372329;102;21613;-68
2021/08/25 13:26:32;;;;;;;2.50;2.30;;;;;;;18.64;100.00;99094.06;1394539;101;21144;-68
2021/08/25 13:28:58;;;;;;;2.55;2.35;;;;;;;18.51;100.00;99086.83;1373430;103;21248;-68
2021/08/25 13:31:27;;;;;;;2.92;2.70;;;;;;;18.44;100.00;99085.14;1440402;94;21184;-68
2021/08/25 13:33:54;;;;;;;2.50;2.30;;;;;;;18.42;100.00;99088.73;1517492;94;21605;-68
2021/08/25 13:36:24;;;;;;;3.17;2.42;;;;;;;18.38;100.00;99086.42;1512739;94;21111;-68
2021/08/25 13:38:50;;;;;;;2.90;2.70;;;;;;;18.25;100.00;99086.80;1550227;91;20949;-68
2021/08/25 13:41:17;;;;;;;2.60;2.40;;;;;;;18.04;100.00;99084.42;1557458;92;21020;-68
2021/08/25 13:43:44;;;;;;;2.60;2.40;;;;;;;17.89;100.00;99087.00;1568460;90;21804;-69
2021/08/25 13:46:12;;;;;;;3.07;2.77;;;;;;;17.82;100.00;99086.65;1568889;90;21030;-71
2021/08/25 13:48:39;;;;;;;3.67;2.33;;;;;;;17.74;100.00;99083.55;1578387;90;21041;-69
2021/08/25 13:51:08;;;;;;;4.80;2.75;;;;;;;17.81;100.00;99076.89;1570532;88;21548;-69
2021/08/25 13:53:38;;;;;;;4.00;2.35;;;;;;;17.86;100.00;99080.28;1530607;92;21680;-69
2021/08/25 13:56:08;;;;;;;2.83;2.62;;;;;;;18.06;100.00;99066.69;1561402;89;21965;-69
2021/08/25 13:58:35;;;;;;;4.40;2.62;;;;;;;18.16;100.00;99065.60;1569909;90;20998;-69
2021/08/25 14:01:02;;;;;;;2.03;1.90;;;;;;;18.25;100.00;99075.11;1591581;90;21149;-69
2021/08/25 14:03:29;;;;;;;4.00;2.30;;;;;;;18.25;100.00;99071.04;1580711;90;21392;-69
2021/08/25 14:06:00;;;;;;;2.30;2.10;;;;;;;18.14;100.00;99069.98;1547256;90;20958;-69
2021/08/25 14:08:29;;;;;;;2.83;1.92;;;;;;;17.98;100.00;99071.52;1567577;90;20980;-68
2021/08/25 14:10:57;;;;;;;2.67;2.17;;;;;;;18.00;100.00;99068.73;1567654;90;20904;-68
2021/08/25 14:13:24;;;;;;;4.75;2.37;;;;;;;17.89;100.00;99059.85;1537196;91;21118;-68
2021/08/25 14:15:51;;;;;;;2.92;1.85;;;;;;;18.06;100.00;99061.83;1568053;90;21061;-70
2021/08/25 14:18:18;;;;;;;2.50;2.30;;;;;;;17.99;100.00;99052.77;1561720;90;21126;-70
2021/08/25 14:20:45;;;;;;;2.20;2.00;;;;;;;18.05;100.00;99065.08;1581125;90;21177;-68
2021/08/25 14:23:12;;;;;;;2.50;2.30;;;;;;;17.93;100.00;99062.98;1548236;92;21089;-66
2021/08/25 14:25:38;;;;;;;3.58;2.80;;;;;;;17.93;100.00;99066.23;1603314;87;21543;-66
2021/08/25 14:28:07;;;;;;;3.45;3.08;;;;;;;17.74;100.00;99056.97;1587711;88;21063;-68
2021/08/25 14:37:20;;;;;;;4.37;2.30;;;;;;;17.72;100.00;99065.42;1539961;91;20984;-68
2021/08/25 14:40:44;;;;;;;2.92;2.55;;;;;;;17.56;100.00;99052.83;1556515;92;21188;-70
2021/08/25 14:43:36;;;;;;;2.75;2.45;;;;;;;17.76;100.00;99063.69;1575115;89;21377;-69
2021/08/25 14:46:49;;;;;;;2.17;1.80;;;;;;;17.62;100.00;99056.20;1508827;94;21482;-68
2021/08/25 14:49:27;;;;;;;2.05;1.90;;;;;;;17.39;100.00;99064.13;1464944;95;21155;-69
2021/08/25 14:52:15;;;;;;;3.80;2.22;;;;;;;17.17;100.00;99064.95;1463563;96;21146;-69
2021/08/25 14:55:30;;;;;;;3.77;2.40;;;;;;;17.22;100.00;99058.86;1474806;97;20947;-69
2021/08/25 15:03:07;;;;;;;2.55;2.40;;;;;;;17.06;100.00;99057.06;1423873;99;21573;-69
2021/08/25 15:10:20;;;;;;;2.95;2.75;;;;;;;16.89;100.00;99056.95;1382861;102;21037;-68
2021/08/25 15:13:31;;;;;;;3.45;3.15;;;;;;;16.91;100.00;99050.11;1336304;106;21537;-68
2021/08/25 15:16:29;;;;;;;2.80;2.60;;;;;;;16.95;100.00;99049.48;1346703;104;21089;-67
2021/08/25 15:24:47;;;;;;;5.37;3.12;;;;;;;16.65;100.00;99049.07;1307119;109;21295;-68
2021/08/25 15:27:13;;;;;;;3.58;3.27;;;;;;;16.75;100.00;99048.83;1296406;109;21206;-66
2021/08/25 15:29:41;;;;;;;3.95;3.55;;;;;;;16.77;100.00;99041.76;1296299;109;21200;-65
2021/08/25 15:32:08;;;;;;;3.62;3.30;;;;;;;16.74;100.00;99046.45;1299204;110;21080;-67
2021/08/25 15:34:37;;;;;;;3.52;3.22;;;;;;;16.81;100.00;99040.87;1293383;108;21190;-68
2021/08/25 15:37:04;;;;;;;4.08;3.70;;;;;;;16.70;100.00;99049.74;1317910;108;21820;-66
2021/08/25 15:39:32;;;;;;;4.87;3.45;;;;;;;16.66;100.00;99031.72;1338535;107;21171;-66
2021/08/25 15:41:59;;;;;;;;;;;;;;;16.57;100.00;99034.34;1365136;103;21144;-68
2021/08/25 15:44:32;;;;;;;20.85;12.85;;;;;;;16.61;100.00;99039.41;1361955;105;20191;-68
2021/08/25 15:47:04;;;;;;;7.00;5.85;;;;;;;16.61;100.00;99034.52;1364287;105;21168;-68
2021/08/25 15:49:31;;;;;;;7.67;5.12;;;;;;;16.56;100.00;99040.06;1389890;92;21381;-68
2021/08/25 15:51:58;;;;;;;14.30;8.90;;;;;;;16.42;100.00;99036.84;1559225;90;21472;-69
2021/08/25 15:54:25;;;;;;;7.25;5.33;;;;;;;16.45;100.00;99038.94;1558099;90;21111;-68
2021/08/25 15:56:52;;;;;;;8.20;5.47;;;;;;;16.38;100.00;99041.27;1557460;90;21496;-68
2021/08/25 15:59:19;;;;;;;5.12;4.37;;;;;;;16.36;100.00;99044.82;1531028;91;20978;-68
2021/08/25 16:01:46;;;;;;;5.37;4.78;;;;;;;16.22;100.00;99038.09;1557306;91;21745;-68
2021/08/25 16:08:31;;;;;;;5.12;4.60;;;;;;;16.22;100.00;99040.80;1553628;90;25200;-68
2021/08/25 16:10:58;;;;;;;4.92;4.25;;;;;;;16.16;100.00;99039.85;1576534;90;20951;-69
2021/08/25 16:13:40;;;;;;;4.85;4.35;;;;;;;16.12;100.00;99032.08;1576122;90;20967;-68
2021/08/25 16:16:56;;;;;;;5.30;4.03;;;;;;;16.12;100.00;99034.26;1575985;90;21546;-69
2021/08/25 16:20:25;;;;;;;5.92;4.28;;;;;;;16.05;100.00;99029.24;1536478;91;20985;-69
2021/08/25 16:23:57;;;;;;;5.92;3.58;;;;;;;16.05;100.00;99033.30;1488289;96;21513;-69
2021/08/25 16:26:24;;;;;;;4.58;2.67;;;;;;;16.02;100.00;99031.20;1519346;92;21552;-69
2021/08/25 16:28:53;;;;;;;3.17;2.83;;;;;;;15.96;100.00;99028.34;1500047;94;21553;-69
2021/08/25 16:32:15;;;;;;;6.47;2.92;;;;;;;15.96;100.00;99028.34;1494365;96;21061;-69
2021/08/25 16:38:50;;;;;;;2.42;2.22;;;;;;;15.91;100.00;99031.71;1428888;99;21099;-68
2021/08/25 16:41:26;;;;;;;5.95;3.02;;;;;;;15.72;100.00;99031.25;1454060;98;21069;-69
2021/08/25 16:47:43;;;;;;;;;;;;;;;;;;;;;
2021/08/25 16:51:46;;;;;;;;;;;;;;;;;;;;;
2021/08/25 17:01:17;;;;;;;7.78;2.30;;;;;;;15.21;100.00;99038.91;1272867;111;21129;-69
2021/08/25 17:04:32;;;;;;;2.85;2.33;;;;;;;15.05;100.00;99039.73;1247328;114;21407;-69
2021/08/25 17:07:31;;;;;;;2.85;2.62;;;;;;;14.85;100.00;99040.86;1287897;111;21263;-69
2021/08/25 17:10:00;;;;;;;2.80;2.37;;;;;;;14.74;100.00;99046.95;1276151;111;21219;-69
2021/08/25 17:12:37;;;;;;;2.30;2.08;;;;;;;14.67;100.00;99037.06;1288587;110;21075;-69
2021/08/25 17:15:08;;;;;;;4.40;2.15;;;;;;;14.54;100.00;99036.45;1270218;110;21196;-67
2021/08/25 17:17:34;;;;;;;3.30;2.33;;;;;;;14.45;100.00;99046.27;1293339;109;21186;-67
2021/08/25 17:20:01;;;;;;;4.12;2.20;;;;;;;14.39;100.00;99046.10;1293926;109;21268;-67
2021/08/25 17:22:28;;;;;;;2.37;2.17;;;;;;;14.40;100.00;99047.14;1319407;107;21033;-67
2021/08/25 17:24:56;;;;;;;4.47;2.95;;;;;;;14.37;100.00;99042.33;1395751;99;21007;-66
2021/08/25 17:27:23;;;;;;;;;;;;;;;14.37;100.00;99044.48;1509870;91;21100;-66
2021/08/25 17:29:50;;;;;;;2.70;1.90;;;;;;;14.31;100.00;99038.91;1557529;89;20175;-67
2021/08/25 17:32:16;;;;;;;3.12;2.25;;;;;;;14.22;100.00;99040.64;1642671;87;21152;-66
2021/08/25 17:34:46;;;;;;;4.35;2.20;;;;;;;14.18;100.00;99044.20;1592262;89;21499;-66
2021/08/25 17:37:13;;;;;;;2.42;2.00;;;;;;;14.16;100.00;99043.17;1565947;91;21017;-66
2021/08/25 17:39:40;;;;;;;3.58;2.30;;;;;;;14.11;100.00;99034.59;1581087;89;21532;-67
2021/08/25 17:42:08;;;;;;;6.80;2.40;;;;;;;14.17;100.00;99033.17;1581135;90;21095;-67
2021/08/25 17:44:35;;;;;;;2.58;2.35;;;;;;;14.17;100.00;99031.27;1585990;87;21171;-66
2021/08/25 17:47:03;;;;;;;2.83;2.62;;;;;;;14.14;100.00;99036.70;1634330;87;21478;-67
2021/08/25 17:49:29;;;;;;;4.25;2.12;;;;;;;14.09;100.00;99046.21;1634129;87;20926;-67
2021/08/25 17:51:56;;;;;;;2.42;2.22;;;;;;;14.08;100.00;99045.94;1634078;87;21361;-67
2021/08/25 17:54:24;;;;;;;3.15;2.55;;;;;;;14.08;100.00;99042.44;1647632;87;20968;-66
2021/08/25 17:56:52;;;;;;;2.52;2.33;;;;;;;14.11;100.00;99043.20;1651024;87;21897;-66
2021/08/25 17:59:18;;;;;;;4.12;2.55;;;;;;;14.18;100.00;99054.45;1651358;87;20921;-65
2021/08/25 18:01:46;;;;;;;3.17;2.55;;;;;;;14.21;100.00;99042.27;1647611;85;21378;-65
2021/08/25 18:04:12;;;;;;;3.52;2.60;;;;;;;14.28;100.00;99042.20;1636944;87;21125;-65
2021/08/25 18:06:40;;;;;;;2.65;2.45;;;;;;;14.31;100.00;99045.66;1640346;86;20989;-65
2021/08/25 18:09:07;;;;;;;2.80;2.55;;;;;;;14.31;100.00;99038.91;1651039;86;21131;-65
2021/08/25 18:11:36;;;;;;;2.37;2.17;;;;;;;14.28;100.00;99037.32;1637002;85;25363;-67
2021/08/25 18:14:03;;;;;;;4.25;2.72;;;;;;;14.28;100.00;99041.37;1633612;87;25239;-65
2021/08/25 18:16:31;;;;;;;2.90;2.60;;;;;;;14.25;100.00;99040.61;1636416;85;21047;-67
2021/08/25 18:18:58;;;;;;;3.33;2.63;;;;;;;14.25;100.00;99045.45;1618590;88;21439;-65
2021/08/25 18:21:28;;;;;;;2.70;2.50;;;;;;;14.25;100.00;99048.16;1638501;86;21186;-66
2021/08/25 18:23:58;;;;;;;2.75;2.52;;;;;;;14.29;100.00;99041.64;1650863;85;20989;-66
2021/08/25 18:26:26;;;;;;;4.08;2.92;;;;;;;14.30;100.00;99049.44;1650787;86;20933;-66
2021/08/25 18:28:54;;;;;;;3.22;2.70;;;;;;;14.29;100.00;99049.19;1650549;85;20886;-65
2021/08/25 18:31:20;;;;;;;3.77;3.17;;;;;;;14.27;100.00;99052.72;1676196;84;20936;-66
2021/08/25 18:33:47;;;;;;;3.55;2.87;;;;;;;14.28;100.00;99053.00;1681936;84;21099;-66
2021/08/25 18:36:13;;;;;;;3.80;3.02;;;;;;;14.29;100.00;99053.23;1681772;84;20982;-64
2021/08/25 18:38:41;;;;;;;5.83;2.80;;;;;;;14.29;100.00;99053.23;1698938;84;21070;-66
2021/08/25 18:41:07;;;;;;;4.30;2.60;;;;;;;14.30;100.00;99053.48;1698863;84;21451;-65
2021/08/25 18:43:34;;;;;;;5.28;2.47;;;;;;;14.30;100.00;99050.78;1691990;84;21600;-65
2021/08/25 18:46:00;;;;;;;5.47;3.00;;;;;;;14.32;100.00;99056.70;1663621;86;21123;-64
2021/08/25 18:48:27;;;;;;;4.05;2.70;;;;;;;14.29;100.00;99056.49;1664163;85;20988;-64
2021/08/25 18:50:54;;;;;;;3.65;2.70;;;;;;;14.28;100.00;99052.16;1657462;86;20948;-65
2021/08/25 18:53:20;;;;;;;4.33;2.70;;;;;;;14.26;100.00;99060.58;1686977;84;21042;-64
2021/08/25 18:55:48;;;;;;;3.98;2.55;;;;;;;14.24;100.00;99054.66;1694666;84;21558;-66
2021/08/25 18:58:16;;;;;;;6.72;2.70;;;;;;;14.23;100.00;99052.23;1662856;84;21154;-65
2021/08/25 19:00:50;;;;;;;3.62;2.65;;;;;;;14.26;100.00;99055.17;1664374;85;20945;-64
2021/08/25 19:03:17;;;;;;;4.10;2.60;;;;;;;14.23;100.00;99055.73;1672410;85;20973;-64
2021/08/25 19:05:44;;;;;;;3.33;2.37;;;;;;;14.22;100.00;99056.04;1665987;84;21065;-64
2021/08/25 19:08:10;;;;;;;2.87;2.58;;;;;;;14.20;100.00;99056.87;1663672;84;21003;-64
2021/08/25 19:10:39;;;;;;;3.58;2.42;;;;;;;14.18;100.00;99049.05;1663644;84;21179;-62
2021/08/25 19:13:06;;;;;;;3.45;2.62;;;;;;;14.19;100.00;99052.03;1666018;84;20943;-65
2021/08/25 19:15:39;;;;;;;3.52;2.30;;;;;;;14.20;100.00;99054.97;1656950;84;20958;-65
2021/08/25 19:18:06;;;;;;;3.15;2.27;;;;;;;14.19;100.00;99051.23;1697987;84;20982;-64
2021/08/25 19:20:32;;;;;;;4.05;2.45;;;;;;;14.18;100.00;99050.95;1681927;84;20991;-63
2021/08/25 19:22:59;;;;;;;2.83;2.30;;;;;;;14.15;100.00;99049.09;1664135;84;21124;-63
2021/08/25 19:25:26;;;;;;;2.80;2.60;;;;;;;14.13;100.00;99053.17;1640023;87;21014;-65
2021/08/25 19:27:53;;;;;;;3.37;2.30;;;;;;;14.14;100.00;99046.70;1648267;84;20995;-64
2021/08/25 19:30:20;;;;;;;4.78;2.67;;;;;;;14.11;100.00;99043.20;1660555;84;20954;-65
2021/08/25 19:32:47;;;;;;;3.15;2.50;;;;;;;14.10;100.00;99041.61;1678490;84;21058;-65
2021/08/25 19:35:14;;;;;;;2.52;2.33;;;;;;;14.11;100.00;99044.03;1678794;84;21235;-65
2021/08/25 19:37:41;;;;;;;2.17;1.82;;;;;;;14.10;100.00;99047.01;1677187;85;21004;-65
2021/08/25 19:40:09;;;;;;;2.95;2.47;;;;;;;14.11;100.00;99049.95;1682695;84;20950;-64
2021/08/25 19:42:35;;;;;;;3.22;2.00;;;;;;;14.10;100.00;99050.50;1665341;84;21034;-65
2021/08/25 19:45:03;;;;;;;3.87;2.08;;;;;;;14.06;100.00;99059.46;1662645;86;21071;-64
2021/08/25 19:47:30;;;;;;;2.27;2.08;;;;;;;14.06;100.00;99055.41;1655668;86;21883;-65
2021/08/25 19:49:57;;;;;;;3.00;1.75;;;;;;;14.04;100.00;99055.72;1686318;84;20947;-65
2021/08/25 19:52:23;;;;;;;2.20;1.98;;;;;;;14.03;100.00;99061.39;1693386;84;20899;-64
2021/08/25 19:54:50;;;;;;;2.90;1.85;;;;;;;14.02;100.00;99056.55;1669701;84;21414;-64
2021/08/25 19:57:16;;;;;;;2.08;1.80;;;;;;;14.01;100.00;99052.23;1662401;86;21045;-67
2021/08/25 19:59:43;;;;;;;2.05;1.85;;;;;;;13.98;100.00;99050.11;1663033;86;21102;-65
2021/08/25 20:02:09;;;;;;;1.98;1.75;;;;;;;14.00;100.00;99046.59;1662658;86;21347;-65